createdAt,value
2022-10-19T00:01:03.872Z,16.27
2022-10-19T00:03:33.800Z,14.60
2022-10-19T00:06:03.485Z,15.35
2022-10-19T00:08:33.077Z,13.18
2022-10-19T00:11:03.980Z,12.85
2022-10-19T00:13:33.975Z,12.75
2022-10-19T00:16:11.603Z,8.52
2022-10-19T00:18:43.302Z,16.33
2022-10-19T00:21:14.538Z,16.95
2022-10-19T00:23:44.516Z,13.32
2022-10-19T00:26:14.118Z,16.38
2022-10-19T00:28:43.694Z,16.63
2022-10-19T00:31:18.402Z,14.52
2022-10-19T00:33:49.268Z,19.75
2022-10-19T00:36:20.301Z,17.50
2022-10-19T00:38:50.352Z,16.80
2022-10-19T00:41:21.193Z,15.25
2022-10-19T00:43:58.802Z,17.30
2022-10-19T00:46:32.743Z,10.55
2022-10-19T00:49:07.103Z,18.00
2022-10-19T00:51:42.373Z,15.95
2022-10-19T00:54:12.564Z,15.32
2022-10-19T00:56:43.773Z,16.95
2022-10-19T00:59:14.012Z,15.50
2022-10-19T01:01:47.381Z,15.35
2022-10-19T01:04:17.208Z,19.38
2022-10-19T01:06:46.813Z,15.95
2022-10-19T01:09:16.837Z,14.73
2022-10-19T01:11:55.990Z,16.83
2022-10-19T01:14:34.075Z,12.63
2022-10-19T01:17:13.116Z,18.13
2022-10-19T01:20:09.880Z,10.82
2022-10-19T01:22:53.308Z,13.88
2022-10-19T01:25:25.858Z,13.68
2022-10-19T01:28:21.061Z,12.30
2022-10-19T01:30:56.154Z,15.75
2022-10-19T01:33:35.041Z,18.10
2022-10-19T01:36:09.371Z,17.25
2022-10-19T01:38:41.250Z,15.80
2022-10-19T01:41:17.906Z,14.57
2022-10-19T01:43:51.725Z,17.80
2022-10-19T01:46:26.519Z,14.68
2022-10-19T01:48:59.541Z,15.93
2022-10-19T01:51:33.075Z,16.38
2022-10-19T01:54:06.260Z,11.00
2022-10-19T01:56:37.243Z,16.67
2022-10-19T01:59:09.711Z,22.40
2022-10-19T02:01:45.191Z,19.52
2022-10-19T02:04:16.332Z,19.25
2022-10-19T02:06:46.158Z,10.65
2022-10-19T02:09:18.293Z,14.15
2022-10-19T02:11:50.480Z,20.20
2022-10-19T02:14:24.788Z,28.23
2022-10-19T02:17:00.696Z,17.83
2022-10-19T02:19:30.731Z,14.80
2022-10-19T02:22:00.509Z,14.35
2022-10-19T02:24:30.176Z,17.85
2022-10-19T02:27:00.594Z,11.85
2022-10-19T02:29:30.352Z,16.17
2022-10-19T02:32:02.806Z,16.45
2022-10-19T02:34:32.621Z,11.88
2022-10-19T02:37:02.371Z,15.82
2022-10-19T02:39:32.171Z,15.13
2022-10-19T02:42:06.887Z,17.08
2022-10-19T02:44:41.280Z,14.68
2022-10-19T02:47:16.323Z,23.58
2022-10-19T02:49:46.710Z,11.98
2022-10-19T02:52:16.548Z,15.75
2022-10-19T02:54:47.249Z,15.55
2022-10-19T02:57:20.854Z,11.43
2022-10-19T02:59:50.506Z,19.58
2022-10-19T03:02:23.615Z,14.70
2022-10-19T03:04:53.157Z,19.50
2022-10-19T03:07:24.051Z,21.65
2022-10-19T03:09:54.279Z,14.60
2022-10-19T03:12:23.853Z,17.08
2022-10-19T03:14:53.467Z,17.33
2022-10-19T03:17:25.581Z,16.02
2022-10-19T03:19:55.111Z,9.32
2022-10-19T03:22:24.652Z,20.17
2022-10-19T03:24:54.238Z,11.68
2022-10-19T03:27:23.776Z,16.17
2022-10-19T03:29:53.319Z,16.25
2022-10-19T03:32:25.498Z,12.23
2022-10-19T03:34:55.061Z,24.65
2022-10-19T03:37:24.707Z,17.23
2022-10-19T03:39:54.981Z,18.40
2022-10-19T03:42:24.520Z,37.40
2022-10-19T03:44:54.078Z,20.63
2022-10-19T03:47:26.233Z,18.20
2022-10-19T03:49:55.781Z,23.67
2022-10-19T03:52:25.288Z,24.38
2022-10-19T03:54:54.873Z,25.38
2022-10-19T03:57:24.428Z,23.48
2022-10-19T03:59:53.989Z,20.08
2022-10-19T04:02:26.608Z,21.20
2022-10-19T04:04:56.604Z,19.88
2022-10-19T04:07:26.184Z,24.17
2022-10-19T04:09:56.325Z,19.58
2022-10-19T04:12:25.837Z,19.45
2022-10-19T04:14:57.795Z,21.08
2022-10-19T04:17:30.588Z,21.10
2022-10-19T04:20:00.229Z,17.52
2022-10-19T04:22:29.734Z,18.40
2022-10-19T04:24:59.272Z,20.27
2022-10-19T04:27:28.780Z,27.48
2022-10-19T04:29:58.348Z,20.65
2022-10-19T04:32:30.516Z,18.10
2022-10-19T04:35:00.077Z,24.27
2022-10-19T04:37:29.606Z,29.70
2022-10-19T04:39:59.149Z,26.95
2022-10-19T04:42:28.696Z,28.83
2022-10-19T04:44:58.238Z,37.30
2022-10-19T04:47:31.840Z,40.67
2022-10-19T04:50:01.635Z,40.83
2022-10-19T04:52:31.264Z,41.92
2022-10-19T04:55:00.816Z,41.08
2022-10-19T04:57:30.431Z,37.03
2022-10-19T05:00:00.023Z,40.40
2022-10-19T05:02:32.118Z,32.45
2022-10-19T05:05:01.654Z,32.00
2022-10-19T05:07:31.416Z,35.22
2022-10-19T05:10:01.156Z,26.45
2022-10-19T05:12:30.696Z,31.08
2022-10-19T05:15:00.243Z,25.70
2022-10-19T05:17:33.929Z,28.67
2022-10-19T05:20:03.661Z,43.08
2022-10-19T05:22:33.167Z,30.13
2022-10-19T05:25:02.707Z,35.67
2022-10-19T05:27:32.552Z,25.00
2022-10-19T05:30:02.381Z,24.80
2022-10-19T05:32:34.528Z,25.73
2022-10-19T05:35:04.106Z,34.67
2022-10-19T05:37:33.846Z,28.20
2022-10-19T05:40:03.575Z,32.72
2022-10-19T05:42:33.126Z,35.03
2022-10-19T05:45:03.189Z,32.08
2022-10-19T05:47:37.315Z,32.03
2022-10-19T05:50:07.869Z,30.05
2022-10-19T05:52:37.928Z,25.65
2022-10-19T05:55:08.700Z,31.42
2022-10-19T05:57:38.233Z,25.30
2022-10-19T06:00:08.795Z,34.55
2022-10-19T06:02:43.945Z,24.98
2022-10-19T06:05:13.507Z,24.20
2022-10-19T06:07:43.003Z,29.25
2022-10-19T06:10:13.002Z,29.08
2022-10-19T06:12:42.504Z,30.30
2022-10-19T06:15:12.966Z,23.30
2022-10-19T06:17:45.090Z,19.63
2022-10-19T06:20:15.065Z,23.98
2022-10-19T06:22:44.614Z,22.42
2022-10-19T06:25:17.989Z,32.13
2022-10-19T06:27:50.174Z,25.35
2022-10-19T06:30:20.025Z,26.85
2022-10-19T06:32:52.289Z,26.92
2022-10-19T06:35:22.043Z,26.30
2022-10-19T06:37:51.611Z,57.03
2022-10-19T06:40:21.176Z,24.75
2022-10-19T06:42:50.731Z,23.95
2022-10-19T06:45:20.524Z,22.80
2022-10-19T06:47:52.662Z,16.88
2022-10-19T06:50:23.148Z,17.55
2022-10-19T06:52:52.674Z,13.27
2022-10-19T06:55:22.338Z,16.88
2022-10-19T06:57:51.872Z,14.60
2022-10-19T07:00:21.485Z,15.32
2022-10-19T07:02:53.602Z,13.15
2022-10-19T07:05:23.162Z,13.13
2022-10-19T07:07:52.822Z,13.95
2022-10-19T07:10:22.414Z,15.60
2022-10-19T07:12:52.021Z,13.40
2022-10-19T07:15:21.557Z,12.32
2022-10-19T07:17:55.676Z,12.55
2022-10-19T07:20:25.215Z,12.25
2022-10-19T07:22:54.786Z,11.35
2022-10-19T07:25:25.002Z,9.80
2022-10-19T07:27:54.540Z,11.90
2022-10-19T07:30:24.187Z,9.90
2022-10-19T07:32:56.364Z,9.50
2022-10-19T07:35:25.885Z,13.10
2022-10-19T07:37:55.446Z,10.35
2022-10-19T07:40:24.962Z,7.68
2022-10-19T07:42:54.490Z,8.77
2022-10-19T07:45:24.224Z,9.75
2022-10-19T07:47:56.394Z,8.93
2022-10-19T07:50:27.701Z,7.65
2022-10-19T07:52:58.075Z,10.20
2022-10-19T07:55:27.706Z,7.68
2022-10-19T07:58:01.501Z,10.00
2022-10-19T08:05:52.547Z,10.65
2022-10-19T08:08:22.140Z,7.00
2022-10-19T08:10:51.695Z,8.40
2022-10-19T08:13:21.259Z,6.50
2022-10-19T08:15:50.949Z,10.88
2022-10-19T08:18:23.645Z,5.30
2022-10-19T08:20:53.254Z,12.05
2022-10-19T08:23:22.999Z,8.90
2022-10-19T08:25:52.773Z,7.95
2022-10-19T08:28:22.363Z,9.18
2022-10-19T08:30:52.006Z,7.07
2022-10-19T08:33:24.140Z,6.15
2022-10-19T08:35:53.964Z,5.20
2022-10-19T08:38:23.620Z,6.22
2022-10-19T08:40:53.172Z,10.48
2022-10-19T08:43:27.035Z,8.65
2022-10-19T08:46:00.124Z,4.18
2022-10-19T08:48:36.762Z,7.20
2022-10-19T08:51:09.392Z,8.13
2022-10-19T08:53:48.936Z,14.33
2022-10-19T08:56:49.854Z,6.25
2022-10-19T08:59:19.474Z,5.05
2022-10-19T09:01:53.325Z,8.88
2022-10-19T09:04:28.088Z,5.20
2022-10-19T09:07:12.872Z,7.43
2022-10-19T09:12:43.472Z,6.65
2022-10-19T09:15:16.094Z,5.88
2022-10-19T09:17:45.700Z,8.93
2022-10-19T09:20:22.956Z,5.45
2022-10-19T09:23:01.920Z,7.20
2022-10-19T09:25:33.405Z,6.65
2022-10-19T09:28:09.458Z,6.90
2022-10-19T09:30:40.175Z,5.45
2022-10-19T09:33:19.302Z,5.32
2022-10-19T09:35:51.528Z,7.57
2022-10-19T09:38:22.382Z,4.85
2022-10-19T09:40:51.917Z,5.75
2022-10-19T09:43:22.583Z,6.43
2022-10-19T09:45:54.854Z,10.63
2022-10-19T09:48:30.811Z,4.40
2022-10-19T09:51:04.728Z,4.40
2022-10-19T09:53:34.354Z,5.95
2022-10-19T09:56:08.522Z,6.63
2022-10-19T09:58:38.500Z,4.13
2022-10-19T10:01:08.348Z,4.35
2022-10-19T10:03:40.807Z,5.15
2022-10-19T10:06:16.171Z,5.65
2022-10-19T10:08:49.305Z,6.97
2022-10-19T10:11:26.413Z,7.82
2022-10-19T10:13:57.710Z,5.40
2022-10-19T10:16:33.754Z,7.68
2022-10-19T10:19:06.932Z,7.53
2022-10-19T10:21:50.313Z,7.00
2022-10-19T10:24:21.325Z,5.53
2022-10-19T10:26:52.624Z,7.05
2022-10-19T10:29:24.367Z,5.95
2022-10-19T10:31:55.674Z,5.65
2022-10-19T10:34:51.932Z,8.20
2022-10-19T10:37:27.544Z,4.55
2022-10-19T10:40:02.021Z,6.30
2022-10-19T10:42:38.143Z,7.85
2022-10-19T10:45:19.046Z,5.03
2022-10-19T10:47:49.152Z,6.88
2022-10-19T10:50:24.050Z,4.03
2022-10-19T10:53:04.194Z,10.25
2022-10-19T10:55:34.871Z,4.28
2022-10-19T10:58:13.178Z,5.38
2022-10-19T11:00:43.790Z,3.95
2022-10-19T11:03:17.583Z,5.70
2022-10-19T11:05:48.829Z,5.70
2022-10-19T11:08:25.297Z,4.85
2022-10-19T11:10:59.323Z,6.45
2022-10-19T11:16:01.890Z,2.92
2022-10-19T11:18:33.480Z,4.43
2022-10-19T11:21:08.525Z,7.90
2022-10-19T11:23:54.325Z,5.45
2022-10-19T11:26:36.176Z,7.35
2022-10-19T11:29:17.049Z,6.88
2022-10-19T11:31:51.088Z,4.78
2022-10-19T11:37:00.451Z,4.03
2022-10-19T11:39:42.822Z,5.25
2022-10-19T11:42:20.905Z,4.65
2022-10-19T11:45:01.136Z,4.40
2022-10-19T11:47:43.285Z,5.80
2022-10-19T11:50:32.475Z,3.72
2022-10-19T11:53:10.292Z,3.58
2022-10-19T11:55:47.478Z,4.18
2022-10-19T11:58:34.894Z,4.78
2022-10-19T12:01:15.444Z,3.75
2022-10-19T12:04:06.828Z,4.50
2022-10-19T12:06:42.764Z,3.15
2022-10-19T12:09:21.538Z,1.88
2022-10-19T12:12:05.750Z,2.90
2022-10-19T12:14:38.724Z,2.92
2022-10-19T12:17:10.541Z,2.25
2022-10-19T12:19:43.062Z,5.18
2022-10-19T12:22:18.040Z,1.75
2022-10-19T12:24:48.450Z,2.85
2022-10-19T12:27:24.047Z,3.35
2022-10-19T12:29:53.672Z,2.20
2022-10-19T12:32:24.603Z,2.28
2022-10-19T12:34:59.244Z,3.58
2022-10-19T12:37:34.465Z,3.65
2022-10-19T12:40:08.149Z,2.75
2022-10-19T12:42:51.396Z,3.75
2022-10-19T12:45:30.405Z,3.97
2022-10-19T12:48:19.008Z,6.68
2022-10-19T12:51:03.925Z,5.50
2022-10-19T12:53:36.238Z,5.20
2022-10-19T12:56:07.623Z,3.33
2022-10-19T12:58:48.123Z,3.53
2022-10-19T13:01:21.227Z,2.35
2022-10-19T13:03:52.556Z,4.72
2022-10-19T13:06:33.566Z,9.10
2022-10-19T13:09:06.185Z,4.57
2022-10-19T13:11:36.144Z,3.15
2022-10-19T13:14:10.159Z,4.50
2022-10-19T13:19:30.236Z,4.47
2022-10-19T13:22:26.705Z,2.25
2022-10-19T13:25:29.577Z,5.75
2022-10-19T13:28:03.023Z,3.80
2022-10-19T13:31:11.558Z,6.07
2022-10-19T13:33:52.991Z,1.80
2022-10-19T13:36:23.581Z,11.30
2022-10-19T13:39:13.040Z,6.15
2022-10-19T13:42:03.288Z,4.53
2022-10-19T13:44:37.522Z,3.55
2022-10-19T13:47:22.884Z,5.05
2022-10-19T13:50:19.646Z,4.20
2022-10-19T13:53:19.546Z,4.88
2022-10-19T13:56:02.248Z,2.83
2022-10-19T13:58:48.772Z,5.47
2022-10-19T14:01:28.704Z,3.20
2022-10-19T14:04:10.977Z,3.92
2022-10-19T14:06:46.107Z,3.78
2022-10-19T14:09:28.342Z,3.42
2022-10-19T14:12:06.790Z,6.93
2022-10-19T14:17:21.247Z,4.68
2022-10-19T14:19:55.400Z,2.38
2022-10-19T14:22:30.105Z,4.55
2022-10-19T14:25:04.129Z,3.20
2022-10-19T14:30:03.781Z,3.78
2022-10-19T14:32:36.140Z,3.45
2022-10-19T14:35:21.937Z,6.10
2022-10-19T14:37:51.939Z,5.65
2022-10-19T14:40:30.348Z,9.75
2022-10-19T14:43:01.076Z,5.38
2022-10-19T14:45:32.562Z,9.23
2022-10-19T14:48:03.739Z,6.50
2022-10-19T14:50:44.548Z,3.95
2022-10-19T14:53:28.312Z,8.55
2022-10-19T14:56:01.041Z,2.90
2022-10-19T14:58:37.456Z,5.38
2022-10-19T15:01:07.263Z,5.75
2022-10-19T15:03:40.212Z,4.03
2022-10-19T15:06:21.097Z,4.45
2022-10-19T15:11:28.620Z,3.75
2022-10-19T15:14:00.655Z,5.47
2022-10-19T15:16:33.242Z,9.43
2022-10-19T15:19:06.405Z,3.75
2022-10-19T15:21:38.551Z,8.02
2022-10-19T15:24:18.948Z,5.32
2022-10-19T15:27:06.602Z,7.28
2022-10-19T15:29:38.583Z,6.63
2022-10-19T15:32:18.733Z,5.13
2022-10-19T15:34:48.714Z,5.63
2022-10-19T15:40:16.931Z,5.57
2022-10-19T15:42:48.841Z,5.55
2022-10-19T15:45:32.995Z,6.28
2022-10-19T15:48:18.776Z,8.98
2022-10-19T15:50:50.222Z,5.95
2022-10-19T15:53:23.744Z,5.25
2022-10-19T15:55:53.391Z,12.15
2022-10-19T15:58:23.064Z,5.57
2022-10-19T16:00:52.649Z,10.68
2022-10-19T16:03:23.157Z,4.68
2022-10-19T16:05:52.860Z,7.50
2022-10-19T16:08:25.090Z,4.28
2022-10-19T16:10:54.708Z,5.60
2022-10-19T16:13:24.270Z,6.78
2022-10-19T16:16:01.430Z,3.95
2022-10-19T16:18:40.239Z,10.13
2022-10-19T16:21:10.457Z,9.40
2022-10-19T16:23:42.667Z,6.38
2022-10-19T16:26:12.457Z,4.85
2022-10-19T16:28:41.998Z,9.35
2022-10-19T16:31:11.633Z,6.35
2022-10-19T16:33:41.183Z,9.45
2022-10-19T16:36:11.839Z,12.40
2022-10-19T16:38:44.091Z,4.15
2022-10-19T16:41:13.956Z,6.47
2022-10-19T16:43:43.659Z,6.00
2022-10-19T16:46:13.420Z,7.05
2022-10-19T16:48:42.932Z,8.40
2022-10-19T16:51:23.938Z,8.32
2022-10-19T16:53:57.617Z,7.25
2022-10-19T16:56:28.708Z,6.53
2022-10-19T16:58:59.903Z,6.78
2022-10-19T17:01:30.031Z,5.15
2022-10-19T17:03:59.664Z,6.38
2022-10-19T17:06:30.546Z,11.55
2022-10-19T17:09:30.247Z,7.68
2022-10-19T17:11:52.416Z,5.15
2022-10-19T17:14:21.941Z,11.05
2022-10-19T17:16:51.533Z,12.15
2022-10-19T17:19:21.049Z,6.10
2022-10-19T17:21:50.579Z,3.75
2022-10-19T17:24:23.190Z,6.45
2022-10-19T17:26:53.772Z,8.23
2022-10-19T17:29:24.230Z,7.90
2022-10-19T17:31:54.006Z,10.02
2022-10-19T17:34:23.900Z,6.40
2022-10-19T17:36:53.419Z,6.97
2022-10-19T17:39:29.224Z,5.13
2022-10-19T17:42:02.031Z,8.05
2022-10-19T17:44:32.703Z,3.97
2022-10-19T17:47:02.556Z,9.75
2022-10-19T17:49:32.143Z,4.90
2022-10-19T17:52:01.705Z,5.35
2022-10-19T17:54:43.459Z,6.47
2022-10-19T17:57:23.334Z,7.50
2022-10-19T17:59:53.291Z,8.85
2022-10-19T18:02:23.046Z,7.55
2022-10-19T18:04:52.560Z,5.40
2022-10-19T18:07:25.643Z,7.55
2022-10-19T18:09:57.744Z,9.18
2022-10-19T18:12:27.281Z,7.40
2022-10-19T18:14:56.852Z,9.35
2022-10-19T18:17:27.770Z,6.93
2022-10-19T18:19:57.549Z,5.97
2022-10-19T18:22:27.102Z,6.70
2022-10-19T18:24:59.228Z,7.18
2022-10-19T18:27:28.799Z,7.18
2022-10-19T18:29:58.360Z,5.35
2022-10-19T18:32:28.025Z,5.45
2022-10-19T18:34:57.511Z,5.70
2022-10-19T18:37:28.705Z,9.52
2022-10-19T18:40:00.828Z,6.20
2022-10-19T18:42:30.610Z,7.53
2022-10-19T18:45:00.134Z,7.63
2022-10-19T18:47:29.655Z,10.13
2022-10-19T18:49:59.159Z,9.40
2022-10-19T18:52:28.782Z,7.15
2022-10-19T18:55:00.994Z,6.65
2022-10-19T18:57:31.826Z,6.65
2022-10-19T19:00:01.642Z,6.30
2022-10-19T19:02:42.258Z,7.18
2022-10-19T19:05:15.971Z,5.93
2022-10-19T19:07:45.489Z,4.35
2022-10-19T19:10:18.175Z,8.55
2022-10-19T19:12:47.711Z,7.72
2022-10-19T19:15:17.287Z,8.48
2022-10-19T19:17:47.565Z,7.55
2022-10-19T19:20:17.100Z,8.30
2022-10-19T19:22:46.687Z,5.68
2022-10-19T19:25:18.825Z,8.77
2022-10-19T19:27:48.398Z,9.90
2022-10-19T19:30:18.017Z,11.60
2022-10-19T19:32:47.548Z,6.65
2022-10-19T19:35:17.248Z,6.53
2022-10-19T19:37:46.875Z,8.52
2022-10-19T19:40:19.417Z,10.18
2022-10-19T19:42:49.463Z,6.95
2022-10-19T19:45:19.055Z,9.65
2022-10-19T19:47:48.645Z,5.47
2022-10-19T19:50:18.266Z,10.73
2022-10-19T19:52:48.592Z,8.27
2022-10-19T19:55:20.761Z,7.18
2022-10-19T19:57:53.901Z,10.82
2022-10-19T20:00:23.737Z,10.57
2022-10-19T20:02:56.882Z,7.90
2022-10-19T20:05:26.924Z,12.93
2022-10-19T20:07:56.516Z,10.93
2022-10-19T20:10:28.874Z,16.15
2022-10-19T20:12:58.459Z,7.03
2022-10-19T20:15:27.984Z,10.52
2022-10-19T20:17:57.545Z,8.48
2022-10-19T20:20:27.121Z,7.80
2022-10-19T20:22:56.723Z,5.28
2022-10-19T20:25:28.878Z,9.50
2022-10-19T20:27:58.477Z,5.97
2022-10-19T20:30:27.983Z,12.55
2022-10-19T20:32:58.745Z,6.50
2022-10-19T20:35:28.584Z,7.10
2022-10-19T20:37:58.623Z,10.13
2022-10-19T20:40:30.738Z,6.72
2022-10-19T20:43:00.301Z,7.35
2022-10-19T20:45:29.862Z,9.13
2022-10-19T20:47:59.427Z,6.68
2022-10-19T20:50:28.982Z,9.52
2022-10-19T20:52:58.492Z,7.55
2022-10-19T20:55:30.702Z,7.28
2022-10-19T20:58:00.221Z,11.40
2022-10-19T21:00:29.771Z,7.45
2022-10-19T21:02:59.489Z,7.95
2022-10-19T21:05:29.436Z,6.63
2022-10-19T21:07:59.018Z,6.10
2022-10-19T21:10:31.716Z,7.93
2022-10-19T21:13:01.289Z,8.50
2022-10-19T21:15:30.788Z,11.95
2022-10-19T21:18:00.351Z,9.07
2022-10-19T21:20:30.507Z,11.80
2022-10-19T21:23:01.079Z,10.82
2022-10-19T21:25:33.165Z,8.68
2022-10-19T21:28:02.732Z,6.82
2022-10-19T21:30:32.225Z,9.85
2022-10-19T21:33:01.734Z,7.28
2022-10-19T21:35:31.290Z,9.40
2022-10-19T21:38:01.053Z,7.55
2022-10-19T21:40:33.139Z,8.20
2022-10-19T21:43:02.665Z,8.07
2022-10-19T21:45:32.195Z,11.43
2022-10-19T21:48:01.755Z,10.38
2022-10-19T21:50:31.285Z,11.00
2022-10-19T21:53:00.811Z,8.77
2022-10-19T21:55:35.894Z,10.70
2022-10-19T21:58:05.971Z,10.32
2022-10-19T22:00:36.481Z,10.32
2022-10-19T22:03:06.473Z,8.52
2022-10-19T22:05:36.093Z,12.77
2022-10-19T22:08:05.692Z,14.60
2022-10-19T22:10:40.375Z,8.18
2022-10-19T22:13:09.910Z,12.05
2022-10-19T22:15:39.970Z,11.77
2022-10-19T22:18:09.779Z,12.75
2022-10-19T22:20:39.697Z,11.93
2022-10-19T22:23:10.283Z,9.88
2022-10-19T22:25:42.404Z,11.00
2022-10-19T22:28:11.931Z,13.88
2022-10-19T22:30:45.021Z,9.80
2022-10-19T22:33:14.680Z,11.70
2022-10-19T22:35:44.253Z,10.30
2022-10-19T22:38:13.846Z,8.43
2022-10-19T22:40:45.969Z,9.05
2022-10-19T22:43:15.539Z,12.63
2022-10-19T22:45:45.126Z,14.05
2022-10-19T22:48:14.692Z,13.35
2022-10-19T22:50:44.245Z,9.80
2022-10-19T22:53:13.945Z,11.18
2022-10-19T22:55:46.104Z,17.88
2022-10-19T22:58:15.698Z,12.70
2022-10-19T23:00:45.293Z,13.93
2022-10-19T23:03:14.932Z,11.70
2022-10-19T23:05:44.498Z,10.50
2022-10-19T23:08:14.109Z,12.52
2022-10-19T23:10:46.280Z,12.70
2022-10-19T23:13:15.932Z,17.33
2022-10-19T23:15:46.300Z,13.77
2022-10-19T23:18:16.117Z,14.35
2022-10-19T23:20:46.041Z,12.50
2022-10-19T23:23:15.665Z,11.43
2022-10-19T23:25:48.287Z,12.98
2022-10-19T23:28:18.255Z,13.20
2022-10-19T23:30:47.984Z,11.43
2022-10-19T23:33:17.569Z,15.02
2022-10-19T23:35:47.152Z,10.88
2022-10-19T23:38:16.710Z,13.77
2022-10-19T23:40:48.880Z,10.90
2022-10-19T23:43:18.515Z,13.73
2022-10-19T23:45:48.232Z,10.52
2022-10-19T23:48:17.773Z,12.60
2022-10-19T23:50:47.433Z,10.35
2022-10-19T23:53:16.998Z,11.43
2022-10-19T23:55:49.108Z,10.02
2022-10-19T23:58:18.678Z,11.73
